Time;durP1;ratioP1;P1;durP2;ratioP2;P2;SDS_P1;SDS_P2;PMS_P1;PMS_P2;Temp;Humidity;BMP_temperature;BMP_pressure;BME280_temperature;BME280_humidity;BME280_pressure;Samples;Min_cycle;Max_cycle;Signal;HPM_P1;HPM_P2
2021/07/04 00:01:28;;;;;;;14.90;13.50;;;;;;;18.04;83.10;100042.26;92689;1209;74610;-59
2021/07/04 00:03:38;;;;;;;15.40;13.90;;;;;;;18.05;83.22;100041.16;92714;1217;82131;-60
2021/07/04 00:05:49;;;;;;;16.50;13.90;;;;;;;18.03;83.19;100035.13;92660;1216;65693;-68
2021/07/04 00:08:00;;;;;;;16.00;13.90;;;;;;;18.04;83.31;100030.48;92736;1221;69733;-67
2021/07/04 00:10:14;;;;;;;16.70;12.90;;;;;;;18.06;83.36;100037.36;92719;1221;86807;-69
2021/07/04 00:12:22;;;;;;;14.40;13.00;;;;;;;18.07;83.32;100028.09;92632;1219;74644;-69
2021/07/04 00:14:30;;;;;;;15.00;12.90;;;;;;;18.08;83.42;100039.84;92681;1217;81510;-69
2021/07/04 00:16:42;;;;;;;15.00;13.40;;;;;;;18.10;83.43;100035.78;92751;1209;65510;-70
2021/07/04 00:18:53;;;;;;;15.50;13.80;;;;;;;18.12;83.48;100033.65;92688;1222;69098;-66
2021/07/04 00:21:07;;;;;;;14.20;12.70;;;;;;;18.13;83.67;100035.29;92637;1217;87788;-67
2021/07/04 00:23:16;;;;;;;20.10;14.70;;;;;;;18.17;83.60;100036.47;92652;1217;74064;-68
2021/07/04 00:25:29;;;;;;;15.80;14.30;;;;;;;18.23;83.58;100034.64;92676;1224;82174;-59
2021/07/04 00:27:40;;;;;;;16.80;15.00;;;;;;;18.26;83.44;100023.21;92658;1216;66068;-60
2021/07/04 00:29:47;;;;;;;16.00;14.10;;;;;;;18.27;83.50;100024.85;92576;1219;68823;-59
2021/07/04 00:31:55;;;;;;;15.60;13.90;;;;;;;18.29;83.59;100020.79;92636;1216;87852;-59
2021/07/04 00:34:04;;;;;;;14.50;13.10;;;;;;;18.28;83.41;100013.69;92636;1216;75081;-59
2021/07/04 00:36:12;;;;;;;17.20;14.30;;;;;;;18.25;83.54;100016.91;92638;1216;81338;-59
2021/07/04 00:38:20;;;;;;;17.00;15.30;;;;;;;18.32;83.52;100021.39;92653;1217;66244;-59
2021/07/04 00:40:29;;;;;;;16.90;15.30;;;;;;;18.28;83.44;100010.95;92590;1219;70681;-68
2021/07/04 00:42:38;;;;;;;15.90;14.50;;;;;;;18.32;83.41;100015.92;92692;1216;87244;-68
2021/07/04 00:44:46;;;;;;;16.10;14.40;;;;;;;18.33;83.54;100018.39;92678;1216;75079;-60
2021/07/04 00:46:53;;;;;;;17.60;15.20;;;;;;;18.38;83.55;100012.17;92647;1224;82008;-58
2021/07/04 00:49:02;;;;;;;17.50;15.80;;;;;;;18.40;83.60;100015.50;92669;1216;66484;-59
2021/07/04 00:51:10;;;;;;;20.10;16.20;;;;;;;18.39;83.54;100022.04;92631;1216;69465;-59
2021/07/04 00:53:23;;;;;;;18.00;15.60;;;;;;;18.41;83.57;100009.77;92695;1216;87231;-59
2021/07/04 00:55:31;;;;;;;17.40;15.20;;;;;;;18.40;83.67;99999.09;92613;1219;74920;-69
2021/07/04 00:57:40;;;;;;;16.80;14.80;;;;;;;18.41;83.53;100008.94;92664;1216;81662;-67
2021/07/04 00:59:48;;;;;;;21.60;16.60;;;;;;;18.36;83.61;100011.59;92672;1216;65685;-60
2021/07/04 01:01:58;;;;;;;18.20;16.30;;;;;;;18.39;83.74;99998.26;92669;1216;68830;-60
2021/07/04 01:04:06;;;;;;;19.00;16.10;;;;;;;18.35;83.69;100010.76;92657;1216;86237;-59
2021/07/04 01:06:16;;;;;;;18.20;15.70;;;;;;;18.35;83.69;100007.22;92637;1221;75755;-59
2021/07/04 01:08:24;;;;;;;17.80;15.80;;;;;;;18.33;83.82;100010.19;92626;1209;80277;-58
2021/07/04 01:10:34;;;;;;;19.90;17.00;;;;;;;18.31;83.72;100008.78;92643;1216;66924;-59
2021/07/04 01:12:46;;;;;;;19.20;17.10;;;;;;;18.34;83.81;100002.82;92676;1224;69627;-60
2021/07/04 01:14:55;;;;;;;20.50;18.40;;;;;;;18.36;83.48;100006.13;92651;1219;86663;-58
2021/07/04 01:17:02;;;;;;;20.10;17.70;;;;;;;18.34;83.73;100002.82;92657;1216;75115;-59
2021/07/04 01:19:16;;;;;;;19.70;16.60;;;;;;;18.40;83.84;100002.66;92651;1216;80236;-59
2021/07/04 01:21:30;;;;;;;22.80;17.70;;;;;;;18.40;83.73;100007.30;92659;1216;66160;-58
2021/07/04 01:23:38;;;;;;;19.20;17.30;;;;;;;18.40;83.84;100005.40;92640;1219;68355;-58
2021/07/04 01:25:53;;;;;;;24.50;17.60;;;;;;;18.43;83.64;100006.80;92614;1219;87525;-67
2021/07/04 01:28:01;;;;;;;21.80;17.70;;;;;;;18.41;83.77;100008.94;92560;1219;75995;-67
2021/07/04 01:30:14;;;;;;;20.30;16.80;;;;;;;18.38;83.84;100003.96;92607;1216;81982;-68
2021/07/04 01:32:21;;;;;;;21.90;18.50;;;;;;;18.35;83.82;100007.22;92662;1217;65191;-68
2021/07/04 01:34:32;;;;;;;22.90;18.70;;;;;;;18.32;83.92;99999.52;92678;1217;68302;-68
2021/07/04 01:36:40;;;;;;;20.90;17.90;;;;;;;18.32;83.84;100005.81;92650;1216;86035;-58
2021/07/04 01:38:47;;;;;;;22.10;17.70;;;;;;;18.34;83.77;100008.29;92638;1219;74700;-61
2021/07/04 01:40:56;;;;;;;21.70;18.60;;;;;;;18.33;84.06;100015.66;92618;1216;81747;-67
2021/07/04 01:43:07;;;;;;;20.60;18.20;;;;;;;18.40;83.87;100008.13;92662;1217;66159;-69
2021/07/04 01:45:18;;;;;;;21.10;18.90;;;;;;;18.43;83.92;100013.08;92668;1225;68140;-59
2021/07/04 01:47:25;;;;;;;26.30;19.30;;;;;;;18.42;83.87;100022.38;92668;1210;85964;-59
2021/07/04 01:49:36;;;;;;;21.80;19.40;;;;;;;18.40;84.03;100010.03;92643;1219;74168;-59
2021/07/04 01:51:44;;;;;;;21.80;17.60;;;;;;;18.42;84.00;100018.81;92657;1216;81280;-69
2021/07/04 01:53:51;;;;;;;20.40;18.30;;;;;;;18.42;83.94;100014.17;92649;1216;65335;-69
2021/07/04 01:56:04;;;;;;;25.50;20.20;;;;;;;18.45;83.97;100015.58;92679;1217;67823;-59
2021/07/04 01:58:15;;;;;;;20.70;18.50;;;;;;;18.43;83.90;100017.74;92626;1217;86419;-61
2021/07/04 02:00:29;;;;;;;21.00;18.80;;;;;;;18.44;84.05;100017.48;92591;1224;75481;-60
2021/07/04 02:02:41;;;;;;;23.40;19.20;;;;;;;18.44;84.05;100019.38;92635;1216;80654;-59
2021/07/04 02:04:48;;;;;;;23.80;20.60;;;;;;;18.42;84.05;100016.91;92622;1216;66977;-59
2021/07/04 02:06:59;;;;;;;25.50;20.30;;;;;;;18.43;84.05;100006.80;92637;1216;69048;-60
2021/07/04 02:09:07;;;;;;;25.70;20.80;;;;;;;18.39;83.95;100014.67;92628;1216;86930;-60
2021/07/04 02:11:15;;;;;;;25.20;19.80;;;;;;;18.40;84.16;100015.50;92649;1217;75617;-69
2021/07/04 02:13:22;;;;;;;26.20;19.30;;;;;;;18.46;84.16;100011.77;92652;1217;81833;-69
2021/07/04 02:15:34;;;;;;;27.70;21.30;;;;;;;18.41;83.92;100014.41;92633;1216;66524;-59
2021/07/04 02:17:42;;;;;;;22.80;20.30;;;;;;;18.36;84.17;100009.70;92673;1217;68196;-59
2021/07/04 02:19:50;;;;;;;24.10;20.30;;;;;;;18.39;84.11;100008.36;92658;1221;87212;-67
2021/07/04 02:21:58;;;;;;;23.20;19.80;;;;;;;18.38;84.07;100009.43;92680;1224;75634;-68
2021/07/04 02:24:06;;;;;;;27.40;20.30;;;;;;;18.40;84.16;100001.83;92697;1221;81897;-68
2021/07/04 02:26:14;;;;;;;23.00;20.50;;;;;;;18.36;84.15;100008.86;92686;1218;68168;-59
2021/07/04 02:28:25;;;;;;;26.00;21.90;;;;;;;18.37;84.18;100005.89;92725;1216;69170;-60
2021/07/04 02:30:35;;;;;;;25.60;20.70;;;;;;;18.39;84.14;100008.36;92695;1217;86172;-68
2021/07/04 02:32:42;;;;;;;25.70;19.70;;;;;;;18.41;84.22;100008.94;92728;1224;73880;-68
2021/07/04 02:34:50;;;;;;;21.70;19.40;;;;;;;18.44;84.23;100016.64;92734;1217;81030;-59
2021/07/04 02:36:58;;;;;;;22.40;19.90;;;;;;;18.40;84.33;100012.77;92663;1217;68537;-58
2021/07/04 02:39:09;;;;;;;29.80;20.00;;;;;;;18.43;84.15;100015.01;92714;1224;70517;-58
2021/07/04 02:41:17;;;;;;;26.70;21.30;;;;;;;18.47;84.14;100016.98;92677;1216;85487;-60
2021/07/04 02:43:26;;;;;;;22.50;20.10;;;;;;;18.51;84.32;100015.45;92707;1218;75346;-59
2021/07/04 02:45:35;;;;;;;24.00;20.50;;;;;;;18.52;84.18;100017.09;92736;1209;80095;-68
2021/07/04 02:47:46;;;;;;;24.10;19.70;;;;;;;18.53;84.18;100016.02;92709;1216;66882;-69
2021/07/04 02:49:54;;;;;;;25.20;20.60;;;;;;;18.51;84.32;100020.09;92715;1216;69707;-68
2021/07/04 02:52:06;;;;;;;21.80;19.60;;;;;;;18.53;84.27;100017.92;92701;1209;85746;-68
2021/07/04 02:54:13;;;;;;;23.10;19.50;;;;;;;18.56;84.14;100022.89;92716;1217;76520;-68
2021/07/04 02:56:21;;;;;;;21.70;19.50;;;;;;;18.55;84.25;100021.23;92681;1217;82081;-59
2021/07/04 02:58:28;;;;;;;21.70;19.00;;;;;;;18.55;84.17;100021.23;92686;1216;68676;-59
2021/07/04 03:00:37;;;;;;;23.00;19.80;;;;;;;18.55;84.17;100024.80;92712;1221;69664;-67
2021/07/04 03:02:45;;;;;;;22.30;19.90;;;;;;;18.50;84.24;100021.98;92720;1218;87175;-67
2021/07/04 03:04:53;;;;;;;22.20;19.30;;;;;;;18.47;84.22;100025.19;92715;1217;75619;-68
2021/07/04 03:07:01;;;;;;;24.70;19.60;;;;;;;18.51;84.25;100025.56;92633;1222;81543;-68
2021/07/04 03:09:09;;;;;;;25.00;19.10;;;;;;;18.45;84.47;100026.52;92668;1224;67652;-69
2021/07/04 03:11:20;;;;;;;20.50;18.50;;;;;;;18.46;84.40;100028.19;92708;1217;68938;-69
2021/07/04 03:13:28;;;;;;;20.80;18.80;;;;;;;18.50;84.51;100019.25;92692;1217;86768;-69
2021/07/04 03:15:35;;;;;;;21.50;19.30;;;;;;;18.52;84.41;100028.03;92717;1223;75925;-58
2021/07/04 03:17:46;;;;;;;22.60;20.30;;;;;;;18.51;84.44;100025.56;92688;1222;82316;-58
2021/07/04 03:19:54;;;;;;;23.40;18.80;;;;;;;18.54;84.33;100027.80;92703;1221;68258;-60
2021/07/04 03:22:02;;;;;;;22.00;17.80;;;;;;;18.53;84.38;100031.59;92704;1222;69458;-58
2021/07/04 03:24:09;;;;;;;21.40;19.00;;;;;;;18.57;84.29;100030.03;92713;1221;88113;-60
2021/07/04 03:26:17;;;;;;;20.70;18.60;;;;;;;18.55;84.57;100035.73;92715;1217;74832;-57
2021/07/04 03:28:25;;;;;;;21.60;19.40;;;;;;;18.54;84.45;100036.81;92708;1217;80723;-59
2021/07/04 03:30:33;;;;;;;22.40;18.90;;;;;;;18.54;84.43;100039.55;92673;1222;68592;-59
2021/07/04 03:32:41;;;;;;;20.40;18.30;;;;;;;18.55;84.39;100043.11;92723;1217;68826;-60
2021/07/04 03:34:49;;;;;;;22.30;19.40;;;;;;;18.55;84.45;100049.42;92656;1225;86266;-67
2021/07/04 03:36:57;;;;;;;22.60;20.20;;;;;;;18.52;84.48;100054.55;92738;1217;74054;-69
2021/07/04 03:39:06;;;;;;;20.90;18.30;;;;;;;18.49;84.51;100050.41;92718;1217;81293;-67
2021/07/04 03:41:13;;;;;;;22.80;18.20;;;;;;;18.51;84.58;100056.48;92693;1217;69824;-59
2021/07/04 03:43:21;;;;;;;22.80;19.40;;;;;;;18.55;84.47;100048.58;92705;1216;69255;-60
2021/07/04 03:45:32;;;;;;;20.70;18.50;;;;;;;18.53;84.47;100056.22;92611;1219;86670;-58
2021/07/04 03:47:41;;;;;;;22.40;18.70;;;;;;;18.54;84.47;100057.89;92746;1221;74378;-59
2021/07/04 03:49:48;;;;;;;21.30;18.20;;;;;;;18.52;84.62;100049.91;92691;1216;80056;-70
2021/07/04 03:51:56;;;;;;;20.60;18.10;;;;;;;18.59;84.82;100041.55;92705;1221;67875;-67
2021/07/04 03:54:04;;;;;;;20.80;18.70;;;;;;;18.63;84.79;100042.69;92706;1216;68763;-68
2021/07/04 03:56:12;;;;;;;20.80;17.60;;;;;;;18.58;84.88;100043.45;92679;1216;85813;-59
2021/07/04 03:58:20;;;;;;;21.30;17.90;;;;;;;18.64;84.62;100041.63;92714;1210;74381;-59
2021/07/04 04:00:28;;;;;;;21.60;19.30;;;;;;;18.65;84.80;100048.77;92669;1223;83650;-69
2021/07/04 04:02:35;;;;;;;24.30;19.00;;;;;;;18.71;84.60;100047.73;92695;1223;68346;-69
2021/07/04 04:04:46;;;;;;;20.50;18.20;;;;;;;18.76;84.82;100056.05;92715;1216;67894;-66
2021/07/04 04:06:54;;;;;;;19.30;17.20;;;;;;;18.81;84.66;100050.64;92680;1216;87408;-69
2021/07/04 04:09:01;;;;;;;21.00;18.50;;;;;;;18.81;84.49;100047.91;92705;1216;74877;-68
2021/07/04 04:11:10;;;;;;;21.10;17.20;;;;;;;18.81;84.73;100054.22;92711;1224;80553;-68
2021/07/04 04:13:17;;;;;;;20.60;17.80;;;;;;;18.77;84.55;100057.69;92711;1217;68012;-69
2021/07/04 04:15:25;;;;;;;18.80;16.80;;;;;;;18.77;84.65;100054.95;92715;1210;67768;-69
2021/07/04 04:17:33;;;;;;;20.30;16.80;;;;;;;18.79;84.69;100056.35;92711;1216;87535;-67
2021/07/04 04:19:41;;;;;;;19.50;17.00;;;;;;;18.85;84.69;100057.26;92742;1216;73702;-69
2021/07/04 04:21:49;;;;;;;18.30;16.30;;;;;;;18.89;84.76;100050.22;92628;1216;81676;-67
2021/07/04 04:23:57;;;;;;;18.70;16.70;;;;;;;18.94;84.76;100049.45;92625;1216;65646;-70
2021/07/04 04:26:06;;;;;;;19.60;17.50;;;;;;;18.93;84.52;100061.47;92612;1217;67952;-59
2021/07/04 04:28:14;;;;;;;19.30;16.00;;;;;;;18.92;84.54;100052.45;92640;1216;87172;-58
2021/07/04 04:30:22;;;;;;;19.50;16.70;;;;;;;18.96;84.43;100056.33;92639;1216;74761;-59
2021/07/04 04:32:34;;;;;;;18.40;16.50;;;;;;;19.00;84.33;100046.54;92663;1216;82711;-60
2021/07/04 04:34:41;;;;;;;19.60;16.80;;;;;;;18.99;84.41;100050.34;92650;1216;65249;-60
2021/07/04 04:36:49;;;;;;;19.50;17.50;;;;;;;18.98;84.36;100054.16;92667;1217;68382;-60
2021/07/04 04:39:00;;;;;;;20.50;16.40;;;;;;;18.99;84.33;100044.88;92617;1216;86568;-59
2021/07/04 04:41:11;;;;;;;19.10;16.90;;;;;;;19.02;84.51;100052.58;92622;1221;74881;-68
2021/07/04 04:43:19;;;;;;;19.80;17.50;;;;;;;19.01;84.46;100044.64;92632;1216;81125;-69
2021/07/04 04:45:27;;;;;;;18.10;16.30;;;;;;;19.05;84.43;100046.61;92652;1224;65800;-59
2021/07/04 04:47:35;;;;;;;19.00;16.40;;;;;;;19.04;84.34;100044.10;92685;1223;68960;-58
2021/07/04 04:49:42;;;;;;;21.00;16.90;;;;;;;19.06;84.32;100045.53;92626;1216;86677;-67
2021/07/04 04:51:50;;;;;;;20.60;17.10;;;;;;;19.09;84.57;100049.67;92639;1216;74913;-68
2021/07/04 04:53:58;;;;;;;19.80;17.80;;;;;;;19.14;84.68;100047.83;92634;1224;81788;-69
2021/07/04 04:56:06;;;;;;;20.10;16.90;;;;;;;19.24;84.60;100044.38;92653;1224;65328;-59
2021/07/04 04:58:14;;;;;;;20.50;16.70;;;;;;;19.27;84.81;100052.93;92705;1209;67649;-60
2021/07/04 05:00:22;;;;;;;19.50;17.10;;;;;;;19.41;84.70;100056.98;92638;1217;85684;-61
2021/07/04 05:02:30;;;;;;;20.10;16.70;;;;;;;19.50;84.47;100057.36;92660;1216;75643;-62
2021/07/04 05:04:38;;;;;;;20.90;17.50;;;;;;;19.57;84.55;100052.50;92617;1217;80474;-65
2021/07/04 05:06:46;;;;;;;21.80;17.10;;;;;;;19.60;84.60;100053.90;92705;1209;65861;-70
2021/07/04 05:08:54;;;;;;;21.90;18.50;;;;;;;19.62;84.33;100055.30;92708;1224;68222;-72
2021/07/04 05:11:01;;;;;;;21.40;18.20;;;;;;;19.65;84.39;100051.20;92667;1217;87174;-61
2021/07/04 05:13:09;;;;;;;21.70;16.50;;;;;;;19.68;84.30;100054.27;92677;1216;75343;-60
2021/07/04 05:15:17;;;;;;;18.50;16.60;;;;;;;19.75;84.53;100054.88;92653;1217;81850;-59
2021/07/04 05:17:24;;;;;;;20.60;17.30;;;;;;;19.83;84.22;100057.16;92668;1216;66019;-61
2021/07/04 05:19:36;;;;;;;21.70;17.30;;;;;;;19.92;84.44;100063.02;92672;1216;69296;-60
2021/07/04 05:21:44;;;;;;;20.00;17.10;;;;;;;19.96;84.01;100055.95;92652;1224;86341;-69
2021/07/04 05:23:51;;;;;;;20.50;18.00;;;;;;;20.03;84.34;100051.90;92631;1216;75402;-69
2021/07/04 05:25:59;;;;;;;20.80;17.90;;;;;;;20.06;83.90;100061.52;92638;1216;81867;-72
2021/07/04 05:28:10;;;;;;;20.10;16.80;;;;;;;20.11;84.23;100064.30;92652;1216;67758;-67
2021/07/04 05:30:19;;;;;;;21.00;18.20;;;;;;;20.21;83.93;100064.42;92660;1216;67871;-62
2021/07/04 05:32:27;;;;;;;20.10;16.50;;;;;;;20.23;83.63;100066.89;92696;1216;86033;-61
2021/07/04 05:34:37;;;;;;;21.60;16.60;;;;;;;20.27;83.90;100063.39;92652;1216;75365;-64
2021/07/04 05:36:47;;;;;;;21.00;17.00;;;;;;;20.33;83.55;100067.00;92644;1217;81663;-72
2021/07/04 05:38:55;;;;;;;20.10;16.70;;;;;;;20.43;83.68;100065.20;92665;1224;66072;-68
2021/07/04 05:41:03;;;;;;;19.10;17.10;;;;;;;20.51;83.31;100059.23;92645;1217;68740;-68
2021/07/04 05:43:11;;;;;;;20.20;17.10;;;;;;;20.56;83.55;100075.73;92655;1225;86415;-67
2021/07/04 05:45:27;;;;;;;19.00;17.00;;;;;;;20.58;83.53;100070.80;92636;1216;75176;-60
2021/07/04 05:47:38;;;;;;;21.60;16.00;;;;;;;20.59;83.22;100071.63;92630;1217;81644;-59
2021/07/04 05:49:46;;;;;;;23.00;17.30;;;;;;;20.56;83.05;100070.24;92615;1216;68619;-58
2021/07/04 05:51:57;;;;;;;19.50;17.30;;;;;;;20.54;83.13;100077.09;92650;1219;70040;-58
2021/07/04 05:54:07;;;;;;;20.20;17.00;;;;;;;20.47;82.80;100071.80;92628;1216;87346;-58
2021/07/04 05:56:15;;;;;;;22.10;16.40;;;;;;;20.49;83.13;100061.38;92651;1224;73927;-67
2021/07/04 05:58:27;;;;;;;18.80;16.20;;;;;;;20.46;83.12;100061.91;92646;1216;81654;-71
2021/07/04 06:00:36;;;;;;;18.90;16.10;;;;;;;20.51;82.87;100064.72;92668;1216;68769;-59
2021/07/04 06:02:44;;;;;;;19.60;17.40;;;;;;;20.52;82.73;100062.77;92636;1216;68697;-60
2021/07/04 06:04:54;;;;;;;19.60;16.60;;;;;;;20.61;82.78;100066.70;92689;1216;87300;-66
2021/07/04 06:07:03;;;;;;;19.80;16.60;;;;;;;20.65;82.98;100061.52;92654;1224;74800;-67
2021/07/04 06:09:10;;;;;;;19.20;16.10;;;;;;;20.71;83.06;100064.02;92640;1217;81641;-68
2021/07/04 06:11:21;;;;;;;20.40;16.30;;;;;;;20.78;82.99;100069.30;92647;1224;68475;-63
2021/07/04 06:13:32;;;;;;;16.70;14.90;;;;;;;20.83;82.75;100064.66;92670;1216;69582;-60
2021/07/04 06:15:40;;;;;;;17.20;15.10;;;;;;;20.86;82.64;100061.39;92642;1224;87142;-69
2021/07/04 06:17:48;;;;;;;18.70;16.20;;;;;;;20.90;82.77;100064.45;92647;1216;75398;-69
2021/07/04 06:19:58;;;;;;;20.70;15.80;;;;;;;20.96;82.70;100058.70;92693;1209;80473;-59
2021/07/04 06:22:07;;;;;;;19.10;15.30;;;;;;;21.04;82.66;100062.89;92725;1223;66958;-59
2021/07/04 06:24:17;;;;;;;17.30;15.60;;;;;;;21.11;82.28;100064.33;92743;1216;68220;-60
2021/07/04 06:26:25;;;;;;;18.60;15.60;;;;;;;21.21;82.43;100063.54;92668;1216;87402;-69
2021/07/04 06:28:33;;;;;;;17.50;15.10;;;;;;;21.40;82.47;100058.44;92708;1217;74666;-69
2021/07/04 06:30:41;;;;;;;17.20;15.40;;;;;;;21.65;82.01;100059.34;92684;1217;80530;-69
2021/07/04 06:32:49;;;;;;;20.70;15.60;;;;;;;21.83;81.84;100065.45;92719;1223;66069;-67
2021/07/04 06:34:56;;;;;;;16.90;15.10;;;;;;;21.79;81.67;100065.16;92742;1220;68335;-67
2021/07/04 06:37:04;;;;;;;18.10;15.00;;;;;;;21.85;81.73;100065.99;92701;1221;85440;-67
2021/07/04 06:39:12;;;;;;;15.40;13.90;;;;;;;21.82;81.27;100067.36;92710;1216;75051;-73
2021/07/04 06:41:20;;;;;;;16.20;14.60;;;;;;;21.86;81.60;100070.41;92650;1216;80732;-60
2021/07/04 06:43:28;;;;;;;15.60;13.90;;;;;;;22.05;81.17;100077.92;92689;1216;66426;-59
2021/07/04 06:45:36;;;;;;;16.10;14.20;;;;;;;22.11;81.10;100067.75;92712;1217;68389;-68
2021/07/04 06:47:47;;;;;;;15.00;13.60;;;;;;;22.05;81.14;100066.08;92661;1224;88713;-68
2021/07/04 06:49:55;;;;;;;17.10;14.90;;;;;;;22.08;80.74;100065.53;92749;1210;75848;-67
2021/07/04 06:52:07;;;;;;;17.00;13.70;;;;;;;22.10;80.68;100068.83;92688;1214;81181;-68
2021/07/04 06:54:15;;;;;;;15.40;13.00;;;;;;;22.10;80.40;100074.34;92710;1217;66957;-68
2021/07/04 06:56:23;;;;;;;15.70;13.30;;;;;;;22.16;80.20;100068.58;92700;1222;67926;-59
2021/07/04 06:58:31;;;;;;;15.80;14.20;;;;;;;22.13;80.22;100066.38;92696;1224;86870;-59
2021/07/04 07:00:39;;;;;;;15.90;13.80;;;;;;;22.13;79.75;100071.05;92674;1224;74111;-68
2021/07/04 07:02:50;;;;;;;14.10;12.60;;;;;;;22.10;79.87;100069.67;92712;1217;82540;-67
2021/07/04 07:04:58;;;;;;;15.40;12.80;;;;;;;21.98;79.70;100068.25;92692;1216;66384;-68
2021/07/04 07:07:06;;;;;;;15.10;13.60;;;;;;;21.96;79.84;100073.20;92680;1214;68612;-67
2021/07/04 07:09:13;;;;;;;17.00;14.40;;;;;;;22.02;79.66;100077.63;92689;1216;87458;-67
2021/07/04 07:11:21;;;;;;;15.00;13.00;;;;;;;21.86;79.36;100070.41;92691;1223;74971;-68
2021/07/04 07:13:29;;;;;;;14.80;13.10;;;;;;;21.83;79.61;100070.95;92704;1217;81717;-68
2021/07/04 07:15:37;;;;;;;13.90;12.50;;;;;;;21.83;79.47;100070.95;92699;1217;66225;-59
2021/07/04 07:17:45;;;;;;;14.30;12.80;;;;;;;21.87;79.48;100070.16;92651;1224;68287;-59
2021/07/04 07:19:53;;;;;;;15.90;12.60;;;;;;;21.87;79.59;100072.07;92659;1216;86320;-59
2021/07/04 07:22:01;;;;;;;14.40;12.70;;;;;;;21.89;79.68;100075.41;92691;1217;73620;-58
2021/07/04 07:24:12;;;;;;;14.60;12.60;;;;;;;21.85;79.28;100074.25;92677;1217;79737;-59
2021/07/04 07:26:20;;;;;;;14.40;12.90;;;;;;;21.89;79.33;100072.66;92698;1216;66120;-58
2021/07/04 07:28:28;;;;;;;16.70;12.80;;;;;;;21.88;79.04;100073.73;92728;1214;67904;-59
2021/07/04 07:30:36;;;;;;;14.40;12.90;;;;;;;21.88;79.10;100066.31;92673;1224;86586;-68
2021/07/04 07:32:44;;;;;;;13.30;11.90;;;;;;;22.03;79.04;100071.03;92694;1219;73895;-67
2021/07/04 07:34:55;;;;;;;13.60;12.20;;;;;;;22.13;78.98;100073.80;92677;1217;82373;-60
2021/07/04 07:37:02;;;;;;;13.60;12.00;;;;;;;22.18;79.08;100071.05;92637;1219;66536;-60
2021/07/04 07:39:11;;;;;;;14.40;12.40;;;;;;;22.21;79.00;100067.75;92748;1223;68470;-59
2021/07/04 07:41:19;;;;;;;14.20;12.20;;;;;;;22.33;79.00;100074.63;92702;1217;87005;-60
2021/07/04 07:43:29;;;;;;;16.60;12.70;;;;;;;22.42;78.62;100074.08;92709;1217;75825;-59
2021/07/04 07:45:39;;;;;;;13.20;11.70;;;;;;;22.54;79.00;100072.72;92714;1210;80885;-66
2021/07/04 07:47:47;;;;;;;13.50;12.10;;;;;;;22.61;78.67;100073.27;92714;1217;68220;-67
2021/07/04 07:49:55;;;;;;;13.60;11.70;;;;;;;22.78;78.70;100067.50;92703;1217;69534;-59
2021/07/04 07:52:02;;;;;;;13.60;12.20;;;;;;;22.87;78.57;100055.66;92703;1216;85260;-59
2021/07/04 07:54:10;;;;;;;12.80;11.60;;;;;;;23.06;78.45;100060.56;92738;1222;74659;-61
2021/07/04 07:56:21;;;;;;;14.30;12.10;;;;;;;23.22;78.00;100063.00;92696;1217;81833;-69
2021/07/04 07:58:32;;;;;;;13.60;12.20;;;;;;;23.28;77.68;100050.86;92696;1217;67879;-68
2021/07/04 08:00:40;;;;;;;13.90;11.90;;;;;;;23.34;77.48;100060.77;92694;1216;68239;-60
2021/07/04 08:02:47;;;;;;;12.60;11.40;;;;;;;23.38;76.97;100061.03;92685;1217;86049;-60
2021/07/04 08:04:55;;;;;;;15.50;11.80;;;;;;;23.34;76.80;100057.18;92686;1223;76151;-66
2021/07/04 08:07:06;;;;;;;11.70;10.50;;;;;;;23.32;76.56;100062.16;92644;1216;82223;-70
2021/07/04 08:09:14;;;;;;;13.10;11.80;;;;;;;23.29;76.33;100051.69;92649;1216;68407;-67
2021/07/04 08:11:26;;;;;;;13.30;12.00;;;;;;;23.13;76.24;100055.60;92695;1217;69497;-67
2021/07/04 08:13:37;;;;;;;13.80;12.30;;;;;;;23.13;76.17;100058.36;92725;1217;86311;-68
2021/07/04 08:15:44;;;;;;;13.30;11.30;;;;;;;23.17;76.51;100051.16;92705;1217;75450;-67
2021/07/04 08:17:55;;;;;;;13.20;11.20;;;;;;;23.33;76.35;100058.27;92692;1222;80896;-66
2021/07/04 08:20:03;;;;;;;13.70;10.90;;;;;;;23.47;76.29;100062.11;92686;1217;68283;-68
2021/07/04 08:22:11;;;;;;;12.50;10.90;;;;;;;23.56;75.96;100065.94;92742;1224;67906;-67
2021/07/04 08:24:21;;;;;;;12.90;11.70;;;;;;;23.68;76.05;100060.91;92718;1216;86056;-68
2021/07/04 08:26:30;;;;;;;12.20;11.00;;;;;;;23.86;75.83;100056.69;92644;1216;74494;-66
2021/07/04 08:28:40;;;;;;;11.50;10.40;;;;;;;23.81;75.62;100060.31;92713;1216;80341;-61
2021/07/04 08:30:48;;;;;;;12.10;10.70;;;;;;;23.91;75.59;100059.41;92709;1224;66935;-66
2021/07/04 08:32:56;;;;;;;13.40;11.20;;;;;;;23.92;75.13;100059.14;92709;1217;69597;-67
2021/07/04 08:35:06;;;;;;;12.50;11.20;;;;;;;24.04;75.12;100053.25;92710;1216;87193;-68
2021/07/04 08:37:14;;;;;;;12.00;10.70;;;;;;;24.07;75.05;100061.78;92643;1218;76500;-66
2021/07/04 08:39:21;;;;;;;11.90;10.20;;;;;;;23.98;74.35;100057.97;92697;1216;82450;-67
2021/07/04 08:41:29;;;;;;;11.80;10.50;;;;;;;24.03;74.71;100054.38;92704;1217;65891;-67
2021/07/04 08:43:38;;;;;;;11.60;10.50;;;;;;;24.19;74.49;100055.95;92720;1216;68902;-68
2021/07/04 08:45:46;;;;;;;10.80;9.80;;;;;;;24.52;74.69;100051.55;92725;1223;86124;-62
2021/07/04 08:47:55;;;;;;;10.60;9.70;;;;;;;24.90;74.46;100052.59;92709;1223;75427;-62
2021/07/04 08:50:06;;;;;;;10.80;9.70;;;;;;;24.90;73.52;100044.30;92715;1209;80853;-67
2021/07/04 08:52:17;;;;;;;11.50;10.30;;;;;;;25.08;73.00;100049.07;92712;1216;65244;-67
2021/07/04 08:54:25;;;;;;;10.80;9.80;;;;;;;25.34;73.31;100049.62;92717;1217;69992;-67
2021/07/04 08:56:36;;;;;;;10.70;9.70;;;;;;;25.53;72.64;100045.81;92699;1220;86566;-72
2021/07/04 08:58:47;;;;;;;11.30;9.90;;;;;;;25.78;72.07;100033.58;92620;1219;75470;-68
2021/07/04 09:01:20;;;;;;;11.10;9.90;;;;;;;25.97;71.89;100036.34;92693;1223;81532;-68
2021/07/04 09:03:29;;;;;;;11.20;10.10;;;;;;;26.51;71.32;100033.04;92702;1216;67151;-67
2021/07/04 09:05:47;;;;;;;9.60;8.60;;;;;;;26.87;70.03;100032.11;92677;1216;68946;-62
2021/07/04 09:07:55;;;;;;;10.60;9.60;;;;;;;27.33;70.79;100028.46;92707;1224;87335;-61
2021/07/04 09:10:10;;;;;;;9.90;9.00;;;;;;;27.61;69.19;100029.30;92732;1209;74267;-68
2021/07/04 09:12:21;;;;;;;10.00;9.10;;;;;;;27.44;68.45;100032.70;92667;1217;80253;-70
2021/07/04 09:14:38;;;;;;;10.70;9.70;;;;;;;27.25;67.86;100031.95;92700;1223;66105;-67
2021/07/04 09:16:51;;;;;;;10.40;9.30;;;;;;;27.03;68.01;100021.55;92743;1221;68423;-63
2021/07/04 09:19:15;;;;;;;10.80;9.70;;;;;;;26.70;67.42;100028.27;92715;1217;87875;-63
2021/07/04 09:21:27;;;;;;;9.80;8.90;;;;;;;26.45;67.34;100028.70;92700;1217;76340;-67
2021/07/04 09:23:39;;;;;;;10.30;9.30;;;;;;;26.31;67.61;100021.17;92749;1214;81670;-65
2021/07/04 09:25:51;;;;;;;10.40;9.40;;;;;;;26.31;67.45;100026.72;92706;1222;65645;-65
2021/07/04 09:28:08;;;;;;;10.00;9.10;;;;;;;26.29;67.53;100023.40;92756;1210;69686;-69
2021/07/04 09:30:18;;;;;;;9.80;8.90;;;;;;;26.43;67.81;100022.63;92789;1210;85494;-67
2021/07/04 09:32:28;;;;;;;10.10;9.20;;;;;;;26.67;67.90;100020.55;92719;1222;74922;-67
2021/07/04 09:34:36;;;;;;;11.40;9.50;;;;;;;26.76;67.90;100022.30;92714;1217;80623;-68
2021/07/04 09:36:44;;;;;;;10.60;9.50;;;;;;;26.74;67.85;100023.74;92703;1217;65549;-65
2021/07/04 09:38:58;;;;;;;9.70;8.80;;;;;;;26.89;67.74;100015.19;92702;1216;70055;-65
2021/07/04 09:41:09;;;;;;;11.00;10.00;;;;;;;26.99;66.67;100014.98;92678;1216;85400;-65
2021/07/04 09:43:20;;;;;;;10.90;9.90;;;;;;;27.05;66.44;100015.71;92632;1216;74566;-65
2021/07/04 09:45:40;;;;;;;10.10;9.20;;;;;;;27.30;67.22;100016.03;92693;1216;81274;-65
2021/07/04 09:47:55;;;;;;;11.10;10.10;;;;;;;27.49;66.27;100005.66;92721;1217;66444;-65